Time;durP1;ratioP1;P1;durP2;ratioP2;P2;SDS_P1;SDS_P2;PMS_P1;PMS_P2;Temp;Humidity;BMP_temperature;BMP_pressure;BME280_temperature;BME280_humidity;BME280_pressure;Samples;Min_cycle;Max_cycle;Signal;HPM_P1;HPM_P2
2022/07/24 04:04:22;;;;;;;29.33;23.10;;;18.70;99.90;;;;;;5552794;22;20514;-64
2022/07/24 04:06:48;;;;;;;16.37;13.27;;;18.70;99.90;;;;;;5034347;28;20917;-64
2022/07/24 04:09:14;;;;;;;14.17;10.67;;;18.80;99.90;;;;;;5034833;28;20167;-64
2022/07/24 04:11:39;;;;;;;25.77;20.63;;;18.70;99.90;;;;;;5034859;28;20173;-65
2022/07/24 04:14:05;;;;;;;29.73;23.43;;;18.80;99.90;;;;;;5034489;28;20180;-64
2022/07/24 04:16:31;;;;;;;23.97;18.90;;;18.90;99.90;;;;;;5028302;28;20272;-64
2022/07/24 04:18:57;;;;;;;18.30;15.17;;;18.90;99.90;;;;;;5021874;28;20185;-64
2022/07/24 04:21:22;;;;;;;14.47;12.30;;;19.00;99.90;;;;;;5023244;28;20433;-64
2022/07/24 04:23:48;;;;;;;12.63;9.53;;;19.00;99.90;;;;;;5014227;28;20171;-64
2022/07/24 04:26:14;;;;;;;10.13;8.70;;;19.00;99.90;;;;;;5015237;28;20190;-65
2022/07/24 04:28:41;;;;;;;10.23;9.23;;;19.10;99.90;;;;;;5014631;28;20178;-66
2022/07/24 04:31:07;;;;;;;12.97;10.17;;;19.00;99.90;;;;;;5031406;28;20203;-65
2022/07/24 04:33:33;;;;;;;21.30;16.00;;;19.10;99.90;;;;;;5033419;28;20415;-65
2022/07/24 04:35:59;;;;;;;12.37;9.57;;;19.10;99.90;;;;;;5032425;28;20194;-63
2022/07/24 04:38:24;;;;;;;14.33;12.70;;;19.20;99.90;;;;;;5027532;28;20449;-65
2022/07/24 04:40:50;;;;;;;10.27;8.47;;;19.20;99.90;;;;;;5014616;28;20178;-65
2022/07/24 04:43:16;;;;;;;10.23;9.13;;;19.40;99.90;;;;;;5014115;28;20228;-63
2022/07/24 04:45:41;;;;;;;11.37;10.17;;;19.40;99.90;;;;;;5014274;28;20201;-66
2022/07/24 04:48:07;;;;;;;12.20;10.90;;;19.60;99.90;;;;;;5014236;28;20531;-64
2022/07/24 04:50:33;;;;;;;12.40;9.13;;;19.70;99.90;;;;;;5015399;28;20175;-66
2022/07/24 04:52:59;;;;;;;9.67;8.70;;;19.90;99.90;;;;;;5014133;28;20171;-63
2022/07/24 04:55:25;;;;;;;10.50;9.03;;;19.90;99.90;;;;;;5014330;28;20439;-66
2022/07/24 04:57:50;;;;;;;10.80;9.03;;;20.10;99.90;;;;;;5014173;28;20202;-65
2022/07/24 05:00:16;;;;;;;12.07;9.80;;;20.10;99.90;;;;;;5014267;28;20163;-63
2022/07/24 05:02:42;;;;;;;10.90;8.50;;;20.20;99.90;;;;;;5013649;28;20592;-64
2022/07/24 05:05:08;;;;;;;8.97;8.13;;;20.30;99.90;;;;;;5025753;28;20204;-63
2022/07/24 05:07:33;;;;;;;10.73;9.10;;;20.40;99.90;;;;;;5033822;28;20186;-66
2022/07/24 05:09:59;;;;;;;9.50;7.83;;;20.50;99.90;;;;;;5034043;28;20408;-64
2022/07/24 05:12:25;;;;;;;9.13;8.13;;;20.60;99.90;;;;;;5033507;28;20182;-67
2022/07/24 05:14:51;;;;;;;9.80;8.83;;;20.70;99.90;;;;;;5033779;28;20186;-63
2022/07/24 05:17:17;;;;;;;9.00;8.10;;;20.70;99.90;;;;;;5032435;28;21034;-66
2022/07/24 05:19:42;;;;;;;9.60;7.83;;;20.90;99.90;;;;;;5022737;28;20543;-63
2022/07/24 05:22:08;;;;;;;9.90;9.00;;;21.00;99.90;;;;;;5013991;28;20253;-67
2022/07/24 05:24:33;;;;;;;10.73;9.63;;;21.00;99.90;;;;;;5013419;28;20182;-64
2022/07/24 05:26:59;;;;;;;10.93;9.80;;;21.10;99.90;;;;;;5013920;28;20175;-67
2022/07/24 05:29:25;;;;;;;9.60;8.43;;;21.20;99.90;;;;;;5013793;28;20269;-64
2022/07/24 05:31:53;;;;;;;8.63;7.83;;;21.20;99.90;;;;;;5013804;28;20179;-65
2022/07/24 05:34:23;;;;;;;13.20;9.30;;;21.40;99.90;;;;;;5015688;28;20198;-64
2022/07/24 05:36:48;;;;;;;10.50;8.00;;;21.50;99.90;;;;;;5013595;28;20470;-62
2022/07/24 05:39:14;;;;;;;9.43;8.03;;;21.70;99.90;;;;;;5013197;28;20459;-63
2022/07/24 05:41:40;;;;;;;9.70;8.10;;;21.70;99.90;;;;;;5013624;28;20172;-64
2022/07/24 05:44:05;;;;;;;9.17;7.73;;;21.80;99.90;;;;;;5013004;28;20171;-64
2022/07/24 05:46:31;;;;;;;8.60;7.80;;;21.90;99.90;;;;;;5013334;28;20226;-64
2022/07/24 05:48:57;;;;;;;9.40;8.53;;;22.10;99.90;;;;;;5021718;28;20232;-67
2022/07/24 05:51:22;;;;;;;9.30;8.33;;;22.20;99.90;;;;;;5033072;28;20303;-61
2022/07/24 05:53:48;;;;;;;8.93;8.03;;;22.20;99.90;;;;;;5032841;28;20176;-65
2022/07/24 05:56:14;;;;;;;8.70;7.90;;;22.30;99.90;;;;;;5033100;28;20191;-62
2022/07/24 05:58:39;;;;;;;9.20;8.30;;;22.30;99.90;;;;;;5033471;28;20374;-65
2022/07/24 06:01:05;;;;;;;9.53;8.63;;;22.40;99.90;;;;;;5033196;28;20176;-66
2022/07/24 06:03:31;;;;;;;8.73;7.83;;;22.50;99.90;;;;;;5025524;28;20177;-63
2022/07/24 06:05:56;;;;;;;8.60;7.80;;;22.50;99.90;;;;;;5012830;28;20202;-63
2022/07/24 06:08:22;;;;;;;9.23;8.33;;;22.60;99.90;;;;;;5013361;28;20546;-62
2022/07/24 06:10:48;;;;;;;9.53;7.90;;;22.60;99.90;;;;;;5013423;28;20188;-66
2022/07/24 06:13:13;;;;;;;8.90;8.10;;;22.70;99.90;;;;;;5012925;28;20181;-65
2022/07/24 06:15:39;;;;;;;8.60;7.30;;;22.80;99.90;;;;;;5012934;28;20197;-65
2022/07/24 06:18:04;;;;;;;13.10;8.10;;;22.80;99.90;;;;;;5018141;28;20252;-62
2022/07/24 06:20:30;;;;;;;8.00;7.20;;;22.90;99.90;;;;;;5031234;28;20229;-64
2022/07/24 06:22:56;;;;;;;8.53;7.73;;;22.90;99.90;;;;;;5032528;28;20201;-62
2022/07/24 06:25:22;;;;;;;10.30;8.17;;;23.10;99.90;;;;;;5032897;28;20246;-65
2022/07/24 06:27:50;;;;;;;11.37;10.10;;;23.30;99.90;;;;;;5033051;28;20252;-63
2022/07/24 06:30:21;;;;;;;11.47;8.10;;;23.40;99.90;;;;;;5032941;28;20465;-64
2022/07/24 06:32:48;;;;;;;9.40;8.50;;;23.50;99.90;;;;;;5032212;28;20424;-64
2022/07/24 06:35:14;;;;;;;8.53;7.83;;;23.60;99.90;;;;;;5032955;28;20411;-65
2022/07/24 06:37:40;;;;;;;8.73;7.77;;;23.70;99.90;;;;;;5032918;28;20518;-63
2022/07/24 06:40:06;;;;;;;9.03;8.20;;;23.80;99.90;;;;;;5031009;28;20444;-63
2022/07/24 06:42:32;;;;;;;9.40;7.90;;;24.00;99.90;;;;;;5012776;28;20487;-64
2022/07/24 06:44:58;;;;;;;8.70;7.80;;;24.20;99.90;;;;;;5012846;28;20521;-62
2022/07/24 06:47:25;;;;;;;8.43;7.63;;;24.30;99.90;;;;;;5012929;28;20407;-65
2022/07/24 06:49:52;;;;;;;10.40;8.33;;;24.60;99.90;;;;;;5012952;28;20175;-62
2022/07/24 06:52:17;;;;;;;9.73;8.73;;;24.80;99.90;;;;;;5013983;28;20917;-65
2022/07/24 06:54:43;;;;;;;8.60;7.80;;;24.90;99.90;;;;;;5016509;28;20506;-62
2022/07/24 06:57:08;;;;;;;8.63;7.83;;;25.00;99.90;;;;;;5036172;28;20202;-67
2022/07/24 06:59:34;;;;;;;8.50;7.67;;;25.10;99.90;;;;;;5036596;28;20163;-64
2022/07/24 07:01:59;;;;;;;8.03;7.23;;;25.10;99.90;;;;;;5036240;28;20175;-64
2022/07/24 07:04:25;;;;;;;8.80;7.90;;;25.20;99.90;;;;;;5035830;28;20252;-66
2022/07/24 07:06:51;;;;;;;8.47;7.67;;;25.30;99.90;;;;;;5035824;28;20186;-66
2022/07/24 07:09:16;;;;;;;8.80;7.90;;;25.30;99.90;;;;;;5036219;28;20174;-66
2022/07/24 07:11:42;;;;;;;8.80;7.40;;;25.40;99.90;;;;;;5016989;28;20187;-66
2022/07/24 07:14:07;;;;;;;8.23;7.43;;;25.40;99.90;;;;;;5015513;28;20175;-65
2022/07/24 07:16:33;;;;;;;9.60;7.90;;;25.40;99.90;;;;;;5016384;28;20191;-64
2022/07/24 07:18:59;;;;;;;9.13;8.10;;;25.50;99.90;;;;;;5016062;28;20649;-67
2022/07/24 07:21:24;;;;;;;7.60;6.97;;;25.60;99.90;;;;;;5015974;28;20226;-64
2022/07/24 07:23:52;;;;;;;7.87;7.27;;;25.70;99.90;;;;;;5015616;28;20167;-68
2022/07/24 07:26:18;;;;;;;10.10;8.27;;;25.90;99.90;;;;;;5033144;28;20277;-64
2022/07/24 07:28:43;;;;;;;8.23;7.53;;;26.00;99.90;;;;;;5035614;28;20474;-63
2022/07/24 07:31:09;;;;;;;8.53;7.80;;;26.10;99.90;;;;;;5035739;28;20409;-64
2022/07/24 07:33:35;;;;;;;7.07;6.47;;;26.10;99.30;;;;;;5035296;28;20174;-67
2022/07/24 07:36:00;;;;;;;7.73;7.00;;;26.40;99.10;;;;;;5035447;28;20199;-65
2022/07/24 07:38:26;;;;;;;8.40;7.67;;;26.70;98.50;;;;;;5035403;28;20335;-63
2022/07/24 07:40:52;;;;;;;8.00;7.03;;;27.00;97.80;;;;;;5018984;28;20178;-68
2022/07/24 07:43:18;;;;;;;7.40;6.67;;;27.40;96.40;;;;;;5015139;28;20712;-67
2022/07/24 07:45:43;;;;;;;8.00;7.30;;;27.90;96.10;;;;;;5015502;28;20421;-67
2022/07/24 07:48:09;;;;;;;6.70;6.10;;;28.70;94.60;;;;;;5015780;28;20250;-63
2022/07/24 07:50:34;;;;;;;6.60;6.03;;;29.70;93.00;;;;;;5015585;28;20225;-68
2022/07/24 07:53:00;;;;;;;8.17;6.93;;;30.70;90.60;;;;;;5015252;28;20254;-64
2022/07/24 07:55:26;;;;;;;6.70;6.20;;;31.70;86.40;;;;;;5029674;28;20201;-67
2022/07/24 07:57:51;;;;;;;6.70;6.10;;;32.30;81.60;;;;;;5026119;28;20207;-64
2022/07/24 08:00:19;;;;;;;7.80;7.10;;;32.50;81.50;;;;;;5015336;28;20233;-67
2022/07/24 08:02:46;;;;;;;8.90;8.20;;;32.60;79.80;;;;;;5014373;28;20696;-65
2022/07/24 08:05:12;;;;;;;9.30;8.50;;;32.60;80.00;;;;;;5015184;28;20449;-66
2022/07/24 08:07:37;;;;;;;7.13;6.63;;;33.20;79.80;;;;;;5015091;28;20932;-64
2022/07/24 08:10:04;;;;;;;8.93;7.27;;;34.10;76.80;;;;;;5028469;28;20180;-67
2022/07/24 08:12:30;;;;;;;9.10;7.30;;;35.00;74.50;;;;;;5034824;28;20227;-64
2022/07/24 08:14:56;;;;;;;7.50;6.90;;;35.90;70.70;;;;;;5035093;28;20515;-65
2022/07/24 08:17:22;;;;;;;8.00;7.40;;;36.60;67.80;;;;;;5034747;28;20317;-66
2022/07/24 08:19:48;;;;;;;7.40;6.87;;;37.30;63.60;;;;;;5032906;28;20464;-66
2022/07/24 08:22:14;;;;;;;6.60;6.10;;;38.00;61.90;;;;;;5034478;28;20177;-68
2022/07/24 08:24:40;;;;;;;7.27;6.57;;;38.40;61.60;;;;;;5034465;28;20260;-65
2022/07/24 08:27:05;;;;;;;7.33;6.83;;;39.10;60.10;;;;;;5034681;28;20193;-67
2022/07/24 08:29:31;;;;;;;7.27;6.77;;;39.50;59.40;;;;;;5034537;28;20225;-63
2022/07/24 08:31:57;;;;;;;7.00;6.50;;;39.90;57.60;;;;;;5034439;28;20538;-68
2022/07/24 08:34:23;;;;;;;6.73;6.33;;;40.10;56.90;;;;;;5029087;28;20225;-68
2022/07/24 08:36:49;;;;;;;7.10;6.60;;;40.40;56.80;;;;;;5014576;28;20211;-68
2022/07/24 08:39:17;;;;;;;7.30;6.80;;;40.30;55.20;;;;;;5014599;28;20410;-65
2022/07/24 08:41:44;;;;;;;7.40;6.90;;;40.30;54.20;;;;;;5014619;28;20269;-65
2022/07/24 08:44:10;;;;;;;7.03;6.60;;;40.80;54.90;;;;;;5014131;28;20417;-68
2022/07/24 08:46:41;;;;;;;7.20;6.60;;;41.30;53.10;;;;;;5014591;28;20828;-67
2022/07/24 08:49:10;;;;;;;6.70;6.30;;;41.60;52.40;;;;;;5019102;28;20519;-67
2022/07/24 08:51:39;;;;;;;7.67;7.17;;;41.20;52.50;;;;;;5033942;28;20420;-64
2022/07/24 08:54:06;;;;;;;6.57;6.17;;;40.80;52.50;;;;;;5033379;28;20417;-64
2022/07/24 08:56:36;;;;;;;7.33;6.83;;;40.80;52.40;;;;;;5032081;28;20425;-64
2022/07/24 08:59:03;;;;;;;7.83;7.23;;;40.90;52.10;;;;;;5033914;28;20466;-68
2022/07/24 09:01:29;;;;;;;7.03;6.60;;;41.30;51.30;;;;;;5032248;28;20421;-65
2022/07/24 09:03:55;;;;;;;6.83;6.43;;;41.60;51.40;;;;;;5033535;28;20820;-66
2022/07/24 09:06:20;;;;;;;7.40;6.70;;;41.40;50.80;;;;;;5033653;28;20448;-65
2022/07/24 09:09:04;;;;;;;7.70;7.00;;;41.30;51.50;;;;;;5034145;28;20635;-68
2022/07/24 09:11:35;;;;;;;7.13;6.63;;;41.40;51.30;;;;;;5033798;28;20212;-65
2022/07/24 09:16:46;;;;;;;7.47;6.97;;;41.80;50.10;;;;;;5014179;28;20460;-68
2022/07/24 09:19:13;;;;;;;6.87;6.37;;;42.20;48.50;;;;;;5014062;28;20421;-66
2022/07/24 09:21:41;;;;;;;7.33;6.83;;;42.70;48.20;;;;;;5014025;28;20464;-64
2022/07/24 09:24:21;;;;;;;7.17;6.70;;;43.00;47.70;;;;;;5013296;28;20413;-68
2022/07/24 09:26:47;;;;;;;7.87;7.37;;;43.20;47.20;;;;;;5013788;28;20418;-66
2022/07/24 09:29:15;;;;;;;7.43;7.00;;;43.40;47.60;;;;;;5018069;28;20420;-68
2022/07/24 09:31:51;;;;;;;7.53;7.03;;;43.20;47.40;;;;;;5033852;28;20413;-68
2022/07/24 09:34:16;;;;;;;7.50;6.90;;;43.10;47.40;;;;;;5033177;28;20438;-65
2022/07/24 09:37:00;;;;;;;8.43;7.50;;;43.00;47.30;;;;;;5033238;28;20452;-68
2022/07/24 09:39:27;;;;;;;7.10;6.70;;;43.30;46.40;;;;;;5033608;28;20174;-66
2022/07/24 09:41:55;;;;;;;7.50;7.03;;;43.80;46.70;;;;;;5033478;28;20392;-68
2022/07/24 09:44:23;;;;;;;6.90;6.50;;;43.60;46.30;;;;;;5025009;28;20441;-66
2022/07/24 09:46:54;;;;;;;7.13;6.63;;;43.30;47.20;;;;;;5014229;28;20413;-66
2022/07/24 09:49:21;;;;;;;6.90;6.40;;;43.20;46.70;;;;;;5013978;28;20479;-67
2022/07/24 09:52:12;;;;;;;7.00;6.50;;;43.30;46.00;;;;;;5013359;28;20896;-65
2022/07/24 09:54:50;;;;;;;6.87;6.47;;;43.20;45.20;;;;;;5013306;28;20428;-65
2022/07/24 09:57:15;;;;;;;7.77;7.27;;;42.80;46.40;;;;;;5013566;28;20492;-69
2022/07/24 09:59:44;;;;;;;6.73;6.33;;;42.50;45.80;;;;;;5015925;28;20460;-68
2022/07/24 10:02:14;;;;;;;7.80;7.30;;;42.70;45.50;;;;;;5013372;28;20595;-66
2022/07/24 10:04:41;;;;;;;7.80;7.30;;;42.90;45.80;;;;;;5013274;28;20960;-68
2022/07/24 10:07:10;;;;;;;6.93;6.53;;;43.00;45.20;;;;;;5013236;28;20202;-67
2022/07/24 10:09:39;;;;;;;7.43;7.03;;;43.10;45.10;;;;;;5013391;28;20562;-67
2022/07/24 10:12:09;;;;;;;7.43;6.80;;;43.30;44.20;;;;;;5013404;28;20265;-66
2022/07/24 10:14:35;;;;;;;7.00;6.60;;;43.40;45.10;;;;;;5026622;28;20804;-66
2022/07/24 10:17:09;;;;;;;6.70;6.30;;;43.30;44.60;;;;;;5029438;28;20456;-68
2022/07/24 10:19:47;;;;;;;6.73;6.33;;;43.10;43.60;;;;;;5032982;28;20172;-66
2022/07/24 10:22:16;;;;;;;7.47;6.97;;;41.70;45.40;;;;;;5032880;28;20819;-67
2022/07/24 10:24:54;;;;;;;7.10;6.60;;;41.30;46.20;;;;;;5029870;28;20451;-66
2022/07/24 10:27:37;;;;;;;7.20;6.70;;;41.00;46.80;;;;;;5020567;28;20424;-68
2022/07/24 10:30:09;;;;;;;6.80;6.40;;;41.10;46.80;;;;;;5036987;28;20926;-68
2022/07/24 10:32:37;;;;;;;7.30;6.80;;;41.30;45.40;;;;;;5036372;28;20487;-66
2022/07/24 10:35:21;;;;;;;6.40;6.00;;;41.10;46.20;;;;;;5036574;28;20432;-66
2022/07/24 10:38:10;;;;;;;5.63;5.33;;;40.80;46.90;;;;;;5036660;28;20451;-66
2022/07/24 10:40:54;;;;;;;7.47;6.97;;;40.50;46.80;;;;;;5024037;28;20422;-68
2022/07/24 10:43:21;;;;;;;7.50;6.90;;;40.10;46.70;;;;;;5016347;28;20416;-67
2022/07/24 10:46:07;;;;;;;6.50;6.10;;;39.70;47.00;;;;;;5016729;28;20444;-65
2022/07/24 10:48:39;;;;;;;6.30;5.87;;;38.90;47.70;;;;;;5012645;28;20892;-65
2022/07/24 10:51:13;;;;;;;6.97;6.47;;;38.10;48.80;;;;;;5016655;28;20818;-67
2022/07/24 10:53:49;;;;;;;6.93;6.00;;;37.10;49.20;;;;;;5016303;28;20409;-68
2022/07/24 10:56:18;;;;;;;7.80;7.20;;;36.70;50.30;;;;;;5036228;28;20541;-67
2022/07/24 10:59:11;;;;;;;8.00;7.30;;;36.50;50.50;;;;;;5036262;28;20520;-67
2022/07/24 11:01:47;;;;;;;7.93;7.23;;;36.50;50.60;;;;;;5036322;28;20419;-65
2022/07/24 11:04:18;;;;;;;7.80;7.20;;;36.60;50.20;;;;;;5035921;28;20743;-66
2022/07/24 11:06:54;;;;;;;6.30;5.80;;;36.70;50.20;;;;;;5035880;28;20428;-67
2022/07/24 11:09:30;;;;;;;6.73;6.13;;;36.60;50.10;;;;;;5029595;28;20425;-66
2022/07/24 11:11:55;;;;;;;6.00;5.60;;;36.70;50.60;;;;;;5016076;28;20786;-69
2022/07/24 11:14:40;;;;;;;6.40;5.90;;;36.70;50.80;;;;;;5015641;28;20392;-67
2022/07/24 11:17:38;;;;;;;6.90;6.40;;;36.80;50.10;;;;;;5016109;28;20233;-69
2022/07/24 11:20:06;;;;;;;6.70;6.20;;;36.50;50.70;;;;;;5016175;28;20501;-65
2022/07/24 11:22:44;;;;;;;6.40;5.90;;;36.20;50.80;;;;;;5015584;28;20805;-64
2022/07/24 11:25:15;;;;;;;6.13;5.60;;;35.50;52.00;;;;;;5018304;28;20437;-64
2022/07/24 11:27:56;;;;;;;7.50;6.80;;;35.00;52.80;;;;;;5015992;28;20981;-65
2022/07/24 11:30:27;;;;;;;6.60;6.10;;;34.50;53.80;;;;;;5016008;28;20491;-68
2022/07/24 11:32:54;;;;;;;6.07;5.53;;;34.20;54.10;;;;;;5015316;28;20800;-64
2022/07/24 11:35:28;;;;;;;6.13;5.63;;;33.80;54.50;;;;;;5015804;28;20448;-68
2022/07/24 11:37:54;;;;;;;8.67;7.87;;;33.40;54.30;;;;;;5014910;28;20456;-65
2022/07/24 11:40:21;;;;;;;7.90;5.73;;;33.30;54.80;;;;;;5033957;28;20426;-68
2022/07/24 11:42:55;;;;;;;5.80;5.40;;;33.10;55.10;;;;;;5035163;28;20738;-64
2022/07/24 11:45:21;;;;;;;19.87;17.73;;;33.00;54.80;;;;;;5035851;28;20440;-69
2022/07/24 11:47:46;;;;;;;7.63;6.93;;;32.90;55.10;;;;;;5035277;28;20396;-64
2022/07/24 11:50:12;;;;;;;9.20;8.27;;;32.70;56.30;;;;;;5035392;28;20182;-66
2022/07/24 11:52:40;;;;;;;8.13;7.33;;;32.70;55.60;;;;;;5035029;28;20600;-67
2022/07/24 11:55:17;;;;;;;8.17;7.37;;;32.70;55.20;;;;;;5016012;28;20647;-65
2022/07/24 11:57:49;;;;;;;10.63;9.63;;;32.50;55.70;;;;;;5014114;28;20466;-64
2022/07/24 12:00:20;;;;;;;7.00;6.23;;;32.30;55.90;;;;;;5015328;28;20369;-68
2022/07/24 12:02:50;;;;;;;7.73;6.83;;;32.00;56.40;;;;;;5015172;28;20410;-64
2022/07/24 12:05:31;;;;;;;6.53;6.03;;;31.90;57.20;;;;;;5015090;28;20737;-67
2022/07/24 12:07:58;;;;;;;7.37;5.77;;;31.70;57.10;;;;;;5017745;28;20862;-67
2022/07/24 12:10:25;;;;;;;9.73;6.30;;;31.60;57.60;;;;;;5034862;28;20405;-67
2022/07/24 12:12:53;;;;;;;6.00;5.50;;;31.40;57.90;;;;;;5034367;28;20384;-64
2022/07/24 12:15:20;;;;;;;6.80;6.20;;;31.40;57.80;;;;;;5034669;28;20849;-67
2022/07/24 12:18:02;;;;;;;7.10;6.40;;;31.40;58.40;;;;;;5020206;28;20428;-67
2022/07/24 12:20:31;;;;;;;7.07;6.47;;;31.40;57.90;;;;;;5014928;28;20389;-66
2022/07/24 12:22:58;;;;;;;6.17;5.67;;;31.40;58.30;;;;;;5014445;28;20365;-65
2022/07/24 12:25:25;;;;;;;4.97;4.63;;;31.50;59.30;;;;;;5015799;28;20853;-68
2022/07/24 12:28:00;;;;;;;6.13;5.53;;;31.70;58.70;;;;;;5014711;28;20422;-64
2022/07/24 12:30:29;;;;;;;6.70;6.10;;;31.90;58.80;;;;;;5014883;28;20405;-68
2022/07/24 12:33:03;;;;;;;7.17;6.13;;;32.10;57.30;;;;;;5014498;28;20512;-64
2022/07/24 12:35:31;;;;;;;6.10;5.60;;;32.20;57.40;;;;;;5014709;28;20490;-65
2022/07/24 12:37:59;;;;;;;5.97;5.47;;;32.10;57.60;;;;;;5014585;28;20424;-67
2022/07/24 12:40:35;;;;;;;6.30;5.80;;;32.00;57.40;;;;;;5025937;28;20754;-65
2022/07/24 12:43:08;;;;;;;7.03;6.33;;;31.90;57.90;;;;;;5032580;28;20754;-66
2022/07/24 12:45:34;;;;;;;5.73;5.23;;;31.90;57.20;;;;;;5032767;28;20936;-65
2022/07/24 12:48:13;;;;;;;6.00;5.40;;;31.90;56.80;;;;;;5034422;28;20384;-65
2022/07/24 12:50:39;;;;;;;7.37;6.77;;;31.90;56.80;;;;;;5034081;28;20236;-65
2022/07/24 12:53:07;;;;;;;6.20;5.70;;;31.80;57.30;;;;;;5033590;28;20418;-65
2022/07/24 12:55:34;;;;;;;9.83;5.80;;;31.70;58.30;;;;;;5018330;28;20205;-67
2022/07/24 12:58:01;;;;;;;6.43;5.83;;;31.70;57.90;;;;;;5014099;28;20556;-65
2022/07/24 13:00:27;;;;;;;7.13;6.47;;;31.70;57.90;;;;;;5015164;28;20411;-67
2022/07/24 13:02:53;;;;;;;6.00;5.50;;;31.70;58.00;;;;;;5012450;28;20392;-63
2022/07/24 13:05:41;;;;;;;7.27;6.57;;;31.70;57.10;;;;;;5013984;28;20428;-68
2022/07/24 13:08:07;;;;;;;6.27;5.77;;;31.70;57.40;;;;;;5014126;28;20186;-65
2022/07/24 13:10:34;;;;;;;6.00;5.40;;;31.90;58.20;;;;;;5013860;28;20770;-67
2022/07/24 13:13:00;;;;;;;5.67;5.27;;;32.00;58.50;;;;;;5013587;28;20479;-65
2022/07/24 13:15:26;;;;;;;5.90;5.50;;;32.10;57.70;;;;;;5026285;28;20523;-67
2022/07/24 13:17:52;;;;;;;6.57;6.00;;;32.20;57.00;;;;;;5033703;28;20732;-66
2022/07/24 13:20:18;;;;;;;5.97;5.47;;;32.30;56.80;;;;;;5033789;28;20556;-65
2022/07/24 13:22:44;;;;;;;6.47;5.97;;;32.30;57.90;;;;;;5033328;28;20376;-65
2022/07/24 13:25:09;;;;;;;6.30;5.23;;;32.30;57.00;;;;;;5033496;28;20220;-66
2022/07/24 13:27:35;;;;;;;9.67;6.80;;;32.20;58.20;;;;;;5033871;28;20261;-64
2022/07/24 13:30:01;;;;;;;6.37;5.87;;;32.20;58.00;;;;;;5022136;28;20190;-65
2022/07/24 13:32:27;;;;;;;6.93;6.33;;;32.30;56.70;;;;;;5013365;28;20179;-66
2022/07/24 13:34:52;;;;;;;7.57;6.87;;;32.30;56.70;;;;;;5013632;28;20416;-67
2022/07/24 13:37:19;;;;;;;10.80;9.80;;;32.40;57.00;;;;;;5013661;28;20598;-67
2022/07/24 13:39:44;;;;;;;10.13;9.20;;;32.40;56.50;;;;;;5013563;28;20266;-64
2022/07/24 13:42:10;;;;;;;7.50;6.80;;;32.40;56.20;;;;;;5013466;28;20412;-65
2022/07/24 13:44:36;;;;;;;6.30;5.70;;;32.20;55.80;;;;;;5022954;28;20268;-64
2022/07/24 13:47:01;;;;;;;6.40;5.90;;;32.10;55.60;;;;;;5033438;28;20691;-67
2022/07/24 13:49:27;;;;;;;5.27;4.77;;;31.90;56.40;;;;;;5033311;28;20209;-65
2022/07/24 13:51:53;;;;;;;6.53;5.97;;;31.70;57.80;;;;;;5033118;28;20174;-67
2022/07/24 13:54:18;;;;;;;6.27;5.77;;;31.70;57.70;;;;;;5032989;28;20198;-64
2022/07/24 13:56:44;;;;;;;6.07;5.47;;;31.80;57.30;;;;;;5033311;28;20170;-66
2022/07/24 13:59:10;;;;;;;5.93;5.43;;;31.80;56.20;;;;;;5024657;28;20693;-64
2022/07/24 14:01:35;;;;;;;6.03;5.50;;;31.90;56.30;;;;;;5015826;28;20186;-65
2022/07/24 14:04:03;;;;;;;6.20;5.30;;;31.90;56.40;;;;;;5016949;28;20785;-67
2022/07/24 14:06:30;;;;;;;6.17;5.70;;;32.00;56.20;;;;;;5017307;28;20614;-65
2022/07/24 14:08:55;;;;;;;6.10;5.60;;;31.90;55.80;;;;;;5017431;28;20436;-65
2022/07/24 14:11:21;;;;;;;6.20;5.57;;;31.70;56.20;;;;;;5017487;28;20409;-66
2022/07/24 14:13:47;;;;;;;6.20;5.60;;;31.60;56.80;;;;;;5024070;28;20170;-66
2022/07/24 14:16:12;;;;;;;6.40;5.80;;;31.60;56.10;;;;;;5037041;28;20196;-64
2022/07/24 14:18:38;;;;;;;6.37;5.67;;;31.50;56.10;;;;;;5036966;28;20198;-67
2022/07/24 14:21:04;;;;;;;7.00;6.37;;;31.50;56.00;;;;;;5037116;28;20198;-67
2022/07/24 14:23:30;;;;;;;5.87;5.37;;;31.30;56.60;;;;;;5036421;28;20625;-64
2022/07/24 14:25:55;;;;;;;6.50;5.90;;;31.20;56.70;;;;;;5036672;28;20751;-66
2022/07/24 14:28:21;;;;;;;6.50;5.90;;;31.20;57.00;;;;;;5035984;28;20182;-67
2022/07/24 14:30:47;;;;;;;6.40;5.80;;;31.30;56.50;;;;;;5035036;28;20182;-65
2022/07/24 14:33:12;;;;;;;5.07;4.67;;;31.20;56.00;;;;;;5036397;28;20537;-65
2022/07/24 14:35:38;;;;;;;6.60;5.90;;;31.20;56.40;;;;;;5036440;28;20597;-65
2022/07/24 14:38:04;;;;;;;6.20;5.70;;;31.20;56.30;;;;;;5036736;28;20438;-65
2022/07/24 14:40:30;;;;;;;6.20;5.70;;;31.10;56.90;;;;;;5036927;28;20525;-65
2022/07/24 14:42:55;;;;;;;6.47;5.87;;;31.00;56.70;;;;;;5031366;28;20175;-64
2022/07/24 14:45:22;;;;;;;5.90;5.40;;;30.90;56.70;;;;;;5016781;28;20195;-64
2022/07/24 14:47:48;;;;;;;5.80;5.30;;;30.90;56.90;;;;;;5016786;28;20175;-67
2022/07/24 14:50:13;;;;;;;6.07;5.57;;;30.90;57.00;;;;;;5018332;28;20903;-68
2022/07/24 14:52:39;;;;;;;6.07;5.57;;;30.90;56.90;;;;;;5016998;28;20220;-65
2022/07/24 14:55:06;;;;;;;6.27;5.70;;;31.00;57.40;;;;;;5016505;28;20218;-65
2022/07/24 14:57:32;;;;;;;7.13;6.47;;;31.00;57.20;;;;;;5016565;28;20540;-65
2022/07/24 14:59:57;;;;;;;5.60;5.10;;;31.00;56.60;;;;;;5015247;28;20388;-67
2022/07/24 15:02:23;;;;;;;6.20;5.20;;;30.90;56.90;;;;;;5016255;28;20175;-67
2022/07/24 15:04:49;;;;;;;6.27;5.67;;;30.90;57.00;;;;;;5016692;28;20718;-66
2022/07/24 15:07:14;;;;;;;6.43;5.83;;;30.90;57.10;;;;;;5035780;28;20193;-67
2022/07/24 15:09:40;;;;;;;6.10;5.60;;;30.90;57.00;;;;;;5034683;28;20421;-65
2022/07/24 15:12:06;;;;;;;7.27;6.57;;;30.90;57.20;;;;;;5035200;28;20181;-68
2022/07/24 15:14:32;;;;;;;6.13;5.63;;;30.90;57.30;;;;;;5035192;28;20198;-67
2022/07/24 15:16:57;;;;;;;6.87;6.17;;;31.00;57.00;;;;;;5036028;28;20197;-65
2022/07/24 15:19:23;;;;;;;6.00;5.50;;;31.00;57.40;;;;;;5035629;28;20597;-64
2022/07/24 15:21:49;;;;;;;5.70;5.10;;;31.10;56.50;;;;;;5016087;28;20171;-67
2022/07/24 15:24:14;;;;;;;6.40;5.90;;;31.10;56.70;;;;;;5015412;28;20245;-65
2022/07/24 15:26:40;;;;;;;6.00;5.43;;;31.10;56.60;;;;;;5016145;28;20175;-68
2022/07/24 15:29:06;;;;;;;6.50;5.90;;;31.00;56.60;;;;;;5016083;28;20171;-67
2022/07/24 15:31:32;;;;;;;6.30;5.70;;;31.00;57.20;;;;;;5016017;28;20186;-65
2022/07/24 15:33:57;;;;;;;6.47;5.80;;;31.00;57.00;;;;;;5015346;28;20249;-67
2022/07/24 15:36:23;;;;;;;6.50;6.00;;;30.90;57.20;;;;;;5033582;28;20685;-68
2022/07/24 15:38:49;;;;;;;6.03;5.43;;;30.90;57.20;;;;;;5035332;28;20246;-65
2022/07/24 15:41:14;;;;;;;6.53;5.90;;;31.00;57.60;;;;;;5035454;28;20173;-65
2022/07/24 15:43:40;;;;;;;5.87;5.37;;;31.00;57.10;;;;;;5035130;28;20198;-67
2022/07/24 15:46:06;;;;;;;6.30;5.80;;;30.90;57.30;;;;;;5035283;28;20259;-65
2022/07/24 15:48:31;;;;;;;6.63;5.83;;;31.00;57.20;;;;;;5035362;28;20579;-67
2022/07/24 15:50:57;;;;;;;6.53;5.93;;;30.90;57.30;;;;;;5018521;28;20432;-64
2022/07/24 15:53:23;;;;;;;7.40;6.70;;;30.90;57.30;;;;;;5015060;28;20167;-68
2022/07/24 15:55:48;;;;;;;8.23;6.40;;;30.90;57.60;;;;;;5015448;28;20281;-66
2022/07/24 15:58:14;;;;;;;6.03;5.47;;;30.90;57.60;;;;;;5015339;28;20206;-66
2022/07/24 16:00:39;;;;;;;6.40;5.90;;;30.90;57.80;;;;;;5015298;28;20179;-66
2022/07/24 16:03:05;;;;;;;7.40;5.60;;;30.90;57.90;;;;;;5014854;28;20702;-65
2022/07/24 16:05:31;;;;;;;6.27;5.67;;;30.90;57.80;;;;;;5029871;28;20194;-66
2022/07/24 16:07:57;;;;;;;5.87;5.07;;;30.90;58.00;;;;;;5033623;28;20189;-66
2022/07/24 16:10:24;;;;;;;5.87;5.03;;;30.90;57.90;;;;;;5030062;28;20179;-67
2022/07/24 16:12:50;;;;;;;6.40;5.80;;;30.90;58.00;;;;;;5014665;28;20388;-65
2022/07/24 16:15:16;;;;;;;6.67;5.97;;;30.90;58.20;;;;;;5014699;28;20445;-72
2022/07/24 16:17:43;;;;;;;6.73;6.13;;;30.80;58.30;;;;;;5015025;28;20460;-71
2022/07/24 16:20:10;;;;;;;7.07;6.47;;;30.80;58.00;;;;;;5014646;28;20485;-68
2022/07/24 16:22:36;;;;;;;5.90;5.40;;;30.80;58.30;;;;;;5014373;28;20405;-68
2022/07/24 16:25:06;;;;;;;6.30;5.10;;;30.90;57.00;;;;;;5026161;28;20799;-70
2022/07/24 16:27:32;;;;;;;6.23;5.63;;;30.80;57.30;;;;;;5034627;28;20748;-67
2022/07/24 16:29:57;;;;;;;7.73;6.10;;;30.80;57.60;;;;;;5028077;28;20487;-71
2022/07/24 16:32:23;;;;;;;7.07;6.33;;;30.80;57.70;;;;;;5013070;28;20643;-70
2022/07/24 16:34:49;;;;;;;6.10;5.60;;;30.70;57.60;;;;;;5014448;28;20523;-69
2022/07/24 16:37:15;;;;;;;6.30;5.80;;;30.80;58.00;;;;;;5014535;28;20306;-69
2022/07/24 16:39:41;;;;;;;6.13;5.63;;;30.70;58.00;;;;;;5014445;28;20403;-68
2022/07/24 16:42:06;;;;;;;7.40;6.20;;;30.70;57.60;;;;;;5014607;28;20424;-69
2022/07/24 16:44:33;;;;;;;9.03;5.73;;;30.70;57.60;;;;;;5019511;28;20700;-67
2022/07/24 16:46:58;;;;;;;5.77;5.27;;;30.70;57.50;;;;;;5034122;28;20178;-71
2022/07/24 16:49:24;;;;;;;7.53;6.07;;;30.70;57.80;;;;;;5034274;28;20398;-68
2022/07/24 16:51:49;;;;;;;6.60;5.80;;;30.70;57.60;;;;;;5033979;28;20197;-71
2022/07/24 16:54:16;;;;;;;6.13;5.63;;;30.60;57.80;;;;;;5033482;28;20170;-69